International, Washington
Current Conditions -  °F | °C
As of 9:53 AM on Tuesday 21 Oct 2014 (Local Time) from KBFI Reporting Station
Clear Clear  
Wind Chill: 60°   Ceiling: Unl
Heat Index: 60°   Visibility: 10mi
Dew Point: 50°   Wind: 14mph
Humidity: 69%   Direction: 170°S
Pressure: 29.91"   Gusts: NA
Location:  47.6024°N, 122.326°W
Report Text: KBFI 211653Z 17012KT 10SM CLR 16/10 A2991 RMK AO2 SLP128 T01560100
Loading
Personal Weather Stations






























Interactive Weather Map
Tropical Storm Tracking
New forecast layout! Learn more

10-Day Weather Forecast

Advertisements
Track Severe Weather on mobile